Time;durP1;ratioP1;P1;durP2;ratioP2;P2;SDS_P1;SDS_P2;PMS_P1;PMS_P2;Temp;Humidity;BMP_temperature;BMP_pressure;BME280_temperature;BME280_humidity;BME280_pressure;Samples;Min_cycle;Max_cycle;Signal;HPM_P1;HPM_P2
2021/06/30 00:07:42;;;;;;;22.83;9.93;;;;;;;21.39;77.06;99740.13;712789;1208;114245;-73
2021/06/30 00:22:49;;;;;;;17.13;7.47;;;;;;;21.24;77.76;99728.97;712617;1203;113817;-72
2021/06/30 00:37:56;;;;;;;8.30;5.57;;;;;;;21.20;76.92;99717.11;712954;1203;113951;-73
2021/06/30 00:53:03;;;;;;;8.47;5.33;;;;;;;20.99;77.07;99708.45;712630;1203;115076;-72
2021/06/30 01:08:10;;;;;;;7.70;4.45;;;;;;;20.83;77.77;99712.48;712715;1203;115081;-72
2021/06/30 01:23:17;;;;;;;6.10;4.23;;;;;;;20.82;77.61;99686.05;712922;1203;114210;-72
2021/06/30 01:38:26;;;;;;;10.25;5.10;;;;;;;20.65;76.25;99673.22;713101;1185;114560;-72
2021/06/30 01:53:33;;;;;;;15.45;8.73;;;;;;;20.21;77.34;99657.11;712982;1203;114216;-72
2021/06/30 02:08:41;;;;;;;15.03;8.73;;;;;;;19.99;78.07;99669.12;712606;1205;113827;-72
2021/06/30 02:23:48;;;;;;;4.40;3.08;;;;;;;20.07;76.51;99671.53;713339;1203;114183;-71
2021/06/30 02:38:56;;;;;;;4.50;3.43;;;;;;;20.41;74.66;99672.97;712810;1203;114591;-73
2021/06/30 02:54:03;;;;;;;3.03;2.20;;;;;;;20.85;72.22;99667.78;712843;1203;114821;-72
2021/06/30 03:09:11;;;;;;;3.97;2.47;;;;;;;21.19;70.13;99667.47;712876;1205;113771;-71
2021/06/30 03:24:18;;;;;;;4.03;2.30;;;;;;;21.35;69.72;99688.22;713045;1203;115088;-70
2021/06/30 03:39:25;;;;;;;4.53;3.38;;;;;;;21.69;69.50;99678.05;712903;1203;114792;-70
2021/06/30 03:54:33;;;;;;;4.48;2.55;;;;;;;22.17;69.99;99679.11;712906;1203;114418;-72
2021/06/30 04:09:40;;;;;;;4.20;3.10;;;;;;;22.55;69.53;99674.47;713018;1205;115224;-72
2021/06/30 04:24:48;;;;;;;3.93;2.30;;;;;;;22.66;71.04;99668.34;713062;1203;114021;-71
2021/06/30 04:39:55;;;;;;;5.30;2.27;;;;;;;22.56;71.37;99655.53;712845;1203;114623;-71
2021/06/30 04:55:02;;;;;;;6.03;3.15;;;;;;;22.82;72.40;99639.29;712899;1206;113674;-72
2021/06/30 05:10:10;;;;;;;11.33;3.03;;;;;;;23.32;71.59;99625.47;715733;1169;114037;-75
2021/06/30 05:25:17;;;;;;;4.70;2.97;;;;;;;23.99;70.39;99631.34;712392;1206;114368;-75
2021/06/30 05:40:24;;;;;;;5.70;3.20;;;;;;;24.24;70.60;99641.70;712504;1203;114174;-75
2021/06/30 05:55:32;;;;;;;5.35;3.25;;;;;;;24.42;71.32;99632.64;712292;1204;114155;-77
2021/06/30 06:10:39;;;;;;;8.00;3.50;;;;;;;24.90;71.66;99625.09;712453;1207;114267;-78
2021/06/30 06:25:46;;;;;;;4.45;3.15;;;;;;;25.72;71.91;99623.49;712349;1203;114268;-77
2021/06/30 06:40:53;;;;;;;7.55;3.80;;;;;;;26.39;70.58;99610.73;712641;1203;113775;-78
2021/06/30 06:56:02;;;;;;;12.70;4.23;;;;;;;26.41;71.09;99607.78;712893;1203;114567;-78
2021/06/30 07:11:09;;;;;;;;;;;;;;;26.66;72.60;99577.57;713227;1210;117812;-84
2021/06/30 07:26:16;;;;;;;6.97;3.67;;;;;;;27.54;71.33;99576.16;713637;1181;99810;-78
2021/06/30 07:41:23;;;;;;;4.68;4.03;;;;;;;27.47;70.08;99591.73;712762;1203;112986;-75
2021/06/30 07:56:34;;;;;;;5.87;3.73;;;;;;;27.33;71.23;99593.27;717904;1205;113663;-75
2021/06/30 08:11:41;;;;;;;5.15;4.10;;;;;;;27.53;72.12;99597.95;713885;1206;114709;-75
2021/06/30 08:26:45;;;;;;;8.57;4.40;;;;;;;27.27;71.93;99602.42;713044;1202;114638;-75
2021/06/30 08:41:48;;;;;;;5.95;5.03;;;;;;;27.00;70.15;99600.66;712685;1203;114448;-75
2021/06/30 08:56:52;;;;;;;9.45;4.50;;;;;;;26.93;70.73;99606.27;712837;1181;113605;-75
2021/06/30 09:12:00;;;;;;;9.70;4.40;;;;;;;26.77;72.32;99615.33;713040;1205;113412;-76
2021/06/30 09:27:03;;;;;;;9.75;5.65;;;;;;;27.04;74.02;99599.89;712943;1203;115009;-76
2021/06/30 09:42:14;;;;;;;7.65;5.20;;;;;;;28.02;72.09;99592.16;714274;1202;114412;-77
2021/06/30 09:57:17;;;;;;;6.18;4.63;;;;;;;29.29;69.03;99596.88;715603;1203;114090;-77
2021/06/30 10:12:25;;;;;;;10.33;5.53;;;;;;;30.24;67.50;99591.45;713609;1202;115258;-77
2021/06/30 10:27:28;;;;;;;8.70;5.68;;;;;;;29.92;65.06;99586.55;714009;1203;114274;-78
2021/06/30 10:42:37;;;;;;;7.75;5.60;;;;;;;30.97;64.59;99567.22;715378;1203;115085;-74
2021/06/30 10:57:39;;;;;;;8.60;5.40;;;;;;;30.45;62.93;99567.73;713601;1203;114938;-76
2021/06/30 11:12:55;;;;;;;7.23;6.30;;;;;;;28.86;68.15;99566.76;713591;1203;114252;-75
2021/06/30 11:32:04;;;;;;;8.88;6.53;;;;;;;29.82;69.14;99563.09;716497;1192;23152;-75
2021/06/30 11:47:08;;;;;;;9.87;5.20;;;;;;;30.76;68.28;99555.82;714983;1200;114660;-77
2021/06/30 12:02:10;;;;;;;5.15;4.65;;;;;;;31.33;63.71;99545.95;717807;1198;113206;-77
2021/06/30 12:17:15;;;;;;;10.13;4.18;;;;;;;31.25;63.42;99533.03;720389;1199;113289;-77
2021/06/30 12:32:17;;;;;;;7.60;4.67;;;;;;;31.02;63.54;99531.97;715302;1200;113981;-77
2021/06/30 12:47:20;;;;;;;6.28;4.40;;;;;;;31.13;62.85;99511.00;714558;1202;113943;-77
2021/06/30 13:02:23;;;;;;;5.95;3.38;;;;;;;30.08;62.12;99508.84;714950;1200;113630;-77
2021/06/30 13:17:26;;;;;;;5.60;3.30;;;;;;;30.11;63.36;99508.30;715317;1199;113895;-74
2021/06/30 13:47:51;;;;;;;6.50;1.90;;;;;;;30.62;60.66;99491.57;714800;1199;113251;-75
2021/06/30 14:02:58;;;;;;;2.05;1.50;;;;;;;31.40;58.78;99504.13;715449;1174;113495;-77
2021/06/30 14:18:24;;;;;;;3.13;1.40;;;;;;;30.14;60.72;99492.28;715735;1199;113559;-76
2021/06/30 14:33:28;;;;;;;6.13;1.60;;;;;;;30.84;58.70;99498.34;715241;1199;113464;-75
2021/06/30 14:48:32;;;;;;;2.70;1.80;;;;;;;31.25;57.22;99497.03;715169;1177;113822;-73
2021/06/30 15:03:35;;;;;;;4.03;1.50;;;;;;;30.36;57.78;99516.15;717509;1174;115081;-73
2021/06/30 15:18:37;;;;;;;3.68;1.30;;;;;;;29.79;58.46;99504.21;714938;1178;113441;-75
2021/06/30 15:33:44;;;;;;;4.75;1.75;;;;;;;29.02;61.44;99516.23;715132;1203;113474;-75
2021/06/30 15:48:46;;;;;;;3.93;1.88;;;;;;;28.80;63.47;99540.89;714678;1202;113457;-75
2021/06/30 16:03:48;;;;;;;2.20;1.73;;;;;;;28.38;64.30;99540.13;714914;1199;114067;-74
2021/06/30 16:18:51;;;;;;;2.00;1.45;;;;;;;27.46;65.17;99548.92;714863;1176;113310;-74
2021/06/30 16:33:53;;;;;;;4.23;1.40;;;;;;;27.87;64.07;99557.08;714855;1182;113506;-73
2021/06/30 16:48:56;;;;;;;4.50;1.40;;;;;;;27.51;62.05;99568.59;714869;1177;113501;-74
2021/06/30 17:03:59;;;;;;;1.50;1.40;;;;;;;27.35;60.86;99545.37;714685;1200;113911;-75
2021/06/30 17:19:06;;;;;;;2.28;1.83;;;;;;;26.94;63.25;99550.59;714865;1186;113770;-74
2021/06/30 17:34:09;;;;;;;5.33;2.13;;;;;;;26.34;65.61;99542.66;714728;1200;113594;-75
2021/06/30 17:49:13;;;;;;;2.88;2.48;;;;;;;25.99;67.92;99552.03;714855;1177;113479;-76
2021/06/30 18:04:16;;;;;;;2.58;1.70;;;;;;;25.49;69.43;99553.95;714959;1200;114187;-79
2021/06/30 18:19:19;;;;;;;1.78;1.50;;;;;;;25.16;70.79;99556.49;715016;1200;112756;-78
2021/06/30 18:34:21;;;;;;;3.45;2.08;;;;;;;24.82;72.28;99572.67;714684;1203;114150;-78
2021/06/30 18:49:24;;;;;;;2.58;2.20;;;;;;;24.85;73.12;99576.73;714876;1199;114169;-74
2021/06/30 19:04:30;;;;;;;2.13;1.80;;;;;;;24.58;73.08;99601.52;715214;1200;113883;-73
2021/06/30 19:19:34;;;;;;;3.75;2.10;;;;;;;24.09;74.84;99613.58;714798;1200;114044;-75
2021/06/30 19:34:40;;;;;;;3.50;2.00;;;;;;;23.76;76.14;99619.65;715788;1178;113889;-76
2021/06/30 19:49:43;;;;;;;5.68;2.60;;;;;;;23.34;77.11;99623.36;715068;1190;113502;-77
2021/06/30 20:04:46;;;;;;;17.18;7.50;;;;;;;23.02;80.34;99668.38;714617;1200;113881;-76
2021/06/30 20:19:48;;;;;;;18.10;8.50;;;;;;;22.62;82.10;99679.71;714739;1199;113852;-77
2021/06/30 20:34:50;;;;;;;12.70;6.03;;;;;;;21.65;84.78;99676.06;714911;1199;114471;-77
2021/06/30 20:49:52;;;;;;;7.75;4.43;;;;;;;21.41;87.49;99687.34;715180;1200;115337;-76
2021/06/30 21:04:55;;;;;;;9.35;4.10;;;;;;;21.22;88.05;99685.69;715314;1199;114247;-75
2021/06/30 21:19:57;;;;;;;5.87;3.33;;;;;;;20.90;89.69;99681.24;714746;1176;113554;-77
2021/06/30 21:35:00;;;;;;;7.07;4.00;;;;;;;21.00;91.80;99664.77;714571;1200;113912;-76
2021/06/30 21:50:06;;;;;;;14.33;9.48;;;;;;;20.89;92.75;99657.48;714886;1173;113870;-76
2021/06/30 22:05:11;;;;;;;10.90;5.67;;;;;;;20.78;93.28;99654.52;715074;1198;115267;-76
2021/06/30 22:20:14;;;;;;;9.60;6.53;;;;;;;20.49;94.00;99673.75;714718;1199;115414;-75
2021/06/30 22:35:17;;;;;;;10.97;6.70;;;;;;;20.21;94.63;99674.95;714475;1176;113426;-75
2021/06/30 22:50:20;;;;;;;12.60;6.97;;;;;;;20.00;96.13;99674.22;714705;1199;115046;-75
2021/06/30 23:05:22;;;;;;;12.85;7.33;;;;;;;19.76;97.63;99671.22;714654;1199;113616;-75
2021/06/30 23:20:24;;;;;;;9.23;7.48;;;;;;;19.59;99.09;99664.73;714693;1200;113705;-76
2021/06/30 23:35:27;;;;;;;10.35;7.48;;;;;;;19.25;100.00;99661.34;714832;1199;115023;-76
2021/06/30 23:50:29;;;;;;;12.28;8.23;;;;;;;19.16;100.00;99654.60;715360;1201;113775;-75
